KSGU/SGU METAR and TAF weather

Enter ICAO airport designator
Station Type Date Time Source
KSGU METAR 2020/06/06 20:56 UTC NOAA

KSGU 062056Z AUTO 22026G32KT 10SM CLR 30/04 A2968 RMK AO2 PK WND 22033/2015 SLP011 T03000039 58008


Station Type Date Time Source
KSGU Decoded METAR 2020/06/06 20:56 UTC NOAA

St George, St George Municipal Airport, UT, United States (KSGU) 37-05N 113-36W
Jun 06, 2020 - 04:56 PM EDT / 2020.06.06 2056 UTC
Wind: from the SW (220 degrees) at 30 MPH (26 KT) gusting to 37 MPH (32 KT):0
Visibility: 10 mile(s):0
Sky conditions: clear
Temperature: 86.0 F (30.0 C)
Dew Point: 39.0 F (3.9 C)
Relative Humidity: 19%
Pressure (altimeter): 29.68 in. Hg (1005 hPa)
Pressure tendency: 0.02 inches (0.8 hPa) lower than three hours ago
ob: KSGU 062056Z AUTO 22026G32KT 10SM CLR 30/04 A2968 RMK AO2 PK WND 22033/2015 SLP011 T03000039 58008
cycle: 21

Station Type Date Time Source
KSGU TAF 2020/06/06 18:40 UTC NOAA

TAF KSGU 061738Z 0618/0718 22016G29KT P6SM SCT110
FM070400 23008KT P6SM FEW200
FM070800 10005KT P6SM FEW180

Example: see airport list